Time;durP1;ratioP1;P1;durP2;ratioP2;P2;SDS_P1;SDS_P2;PMS_P1;PMS_P2;Temp;Humidity;BMP_temperature;BMP_pressure;BME280_temperature;BME280_humidity;BME280_pressure;Samples;Min_cycle;Max_cycle;Signal;HPM_P1;HPM_P2
2022/07/21 05:42:37;;;;;;;41.03;36.85;;;;;;;;;;7387322;19;20196;-71
2022/07/21 05:45:03;;;;;;;37.78;34.17;;;;;;;;;;7389960;19;20897;-70
2022/07/21 05:47:29;;;;;;;38.33;34.55;;;;;;;;;;7387849;19;20220;-71
2022/07/21 05:49:55;;;;;;;37.47;34.08;;;;;;;;;;7390012;19;20200;-71
2022/07/21 05:52:20;;;;;;;34.55;31.52;;;;;;;;;;7387623;19;20180;-71
2022/07/21 05:54:45;;;;;;;30.92;28.23;;;;;;;;;;7390629;19;20132;-71
2022/07/21 05:57:11;;;;;;;32.78;29.52;;;;;;;;;;7388378;19;20144;-71
2022/07/21 05:59:36;;;;;;;35.00;31.70;;;;;;;;;;7387629;19;20125;-71
2022/07/21 06:02:01;;;;;;;29.38;26.45;;;;;;;;;;7389034;19;20156;-71
2022/07/21 06:04:27;;;;;;;26.75;24.40;;;;;;;;;;7391792;19;20117;-71
2022/07/21 06:06:52;;;;;;;31.55;28.65;;;;;;;;;;7383805;19;20132;-71
2022/07/21 06:09:18;;;;;;;26.13;23.55;;;;;;;;;;7390171;19;20207;-71
2022/07/21 06:11:43;;;;;;;28.42;25.83;;;;;;;;;;7386291;19;20149;-71
2022/07/21 06:14:09;;;;;;;29.27;26.45;;;;;;;;;;7389418;19;20598;-71
2022/07/21 06:16:34;;;;;;;26.52;24.13;;;;;;;;;;7386873;19;20849;-71
2022/07/21 06:19:01;;;;;;;29.35;26.75;;;;;;;;;;7389346;19;20149;-71
2022/07/21 06:21:26;;;;;;;23.95;21.85;;;;;;;;;;7387100;19;20156;-71
2022/07/21 06:23:52;;;;;;;25.23;23.05;;;;;;;;;;7384959;19;20120;-71
2022/07/21 06:26:18;;;;;;;22.30;20.30;;;;;;;;;;7386772;19;20125;-71
2022/07/21 06:28:43;;;;;;;27.58;25.05;;;;;;;;;;7385717;19;20657;-71
2022/07/21 06:31:08;;;;;;;28.55;25.90;;;;;;;;;;7387297;19;20149;-71
2022/07/21 06:33:34;;;;;;;22.92;20.83;;;;;;;;;;7389127;19;20116;-71
2022/07/21 06:35:59;;;;;;;39.90;36.33;;;;;;;;;;7386454;19;20156;-71
2022/07/21 06:38:24;;;;;;;25.73;23.60;;;;;;;;;;7388560;19;20623;-71
2022/07/21 06:40:50;;;;;;;25.45;23.17;;;;;;;;;;7387415;19;20486;-71
2022/07/21 06:43:15;;;;;;;22.90;20.80;;;;;;;;;;7389450;19;20615;-71
2022/07/21 06:45:40;;;;;;;20.92;18.48;;;;;;;;;;7388549;19;20121;-71
2022/07/21 06:48:07;;;;;;;22.30;20.27;;;;;;;;;;7386909;19;20121;-71
2022/07/21 06:50:33;;;;;;;19.75;17.70;;;;;;;;;;7385549;19;20127;-71
2022/07/21 06:52:59;;;;;;;19.83;17.92;;;;;;;;;;7386361;19;20196;-71
2022/07/21 06:55:24;;;;;;;19.30;17.60;;;;;;;;;;7386770;19;20141;-71
2022/07/21 06:57:49;;;;;;;19.77;18.08;;;;;;;;;;7388326;19;20129;-71
2022/07/21 07:00:15;;;;;;;21.75;19.85;;;;;;;;;;7387215;19;20121;-71
2022/07/21 07:02:41;;;;;;;21.83;19.73;;;;;;;;;;7384396;19;20622;-71
2022/07/21 07:05:06;;;;;;;20.77;18.90;;;;;;;;;;7389416;19;20117;-71
2022/07/21 07:07:32;;;;;;;22.02;20.13;;;;;;;;;;7386652;19;20144;-71
2022/07/21 07:09:59;;;;;;;21.35;19.35;;;;;;;;;;7386662;19;20745;-71
2022/07/21 07:12:24;;;;;;;20.63;18.83;;;;;;;;;;7386297;19;20153;-71
2022/07/21 07:14:49;;;;;;;20.88;18.85;;;;;;;;;;7389006;19;20148;-71
2022/07/21 07:17:18;;;;;;;21.90;19.95;;;;;;;;;;7393668;19;20181;-71
2022/07/21 07:19:43;;;;;;;20.65;18.65;;;;;;;;;;7392836;19;20659;-71
2022/07/21 07:22:08;;;;;;;19.30;17.63;;;;;;;;;;7387751;19;20148;-71
2022/07/21 07:24:34;;;;;;;17.60;16.00;;;;;;;;;;7396902;19;20209;-71
2022/07/21 07:26:59;;;;;;;17.92;16.23;;;;;;;;;;7389144;19;20144;-71
2022/07/21 07:29:24;;;;;;;19.45;17.63;;;;;;;;;;7391911;19;20594;-71
2022/07/21 07:31:49;;;;;;;16.20;14.80;;;;;;;;;;7386362;19;20172;-71
2022/07/21 07:34:15;;;;;;;17.98;16.27;;;;;;;;;;7388282;19;20120;-71
2022/07/21 07:36:40;;;;;;;17.55;15.95;;;;;;;;;;7384197;19;20117;-71
2022/07/21 07:39:05;;;;;;;14.50;13.20;;;;;;;;;;7393292;19;20141;-71
2022/07/21 07:41:31;;;;;;;15.70;14.40;;;;;;;;;;7391800;19;20149;-71
2022/07/21 07:43:59;;;;;;;15.13;13.55;;;;;;;;;;7394770;19;20156;-71
2022/07/21 07:46:25;;;;;;;14.48;13.00;;;;;;;;;;7392652;19;20618;-71
2022/07/21 07:48:50;;;;;;;15.80;13.48;;;;;;;;;;7391532;19;20148;-71
2022/07/21 07:51:15;;;;;;;15.70;14.25;;;;;;;;;;7394891;19;20157;-71
2022/07/21 07:53:41;;;;;;;16.27;14.98;;;;;;;;;;7394745;19;20121;-71
2022/07/21 07:56:07;;;;;;;16.00;14.35;;;;;;;;;;7394521;19;20169;-70
2022/07/21 07:58:33;;;;;;;15.65;14.32;;;;;;;;;;7394086;19;20655;-71
2022/07/21 08:00:58;;;;;;;16.65;15.25;;;;;;;;;;7392810;19;20266;-71
2022/07/21 08:03:25;;;;;;;15.45;14.20;;;;;;;;;;7394526;19;20481;-70
2022/07/21 08:05:51;;;;;;;16.10;14.60;;;;;;;;;;7393567;19;20125;-71
2022/07/21 08:08:17;;;;;;;14.93;13.48;;;;;;;;;;7392136;19;20136;-71
2022/07/21 08:10:43;;;;;;;14.52;13.32;;;;;;;;;;7393498;19;20119;-71
2022/07/21 08:13:09;;;;;;;15.02;13.60;;;;;;;;;;7394038;19;20181;-70
2022/07/21 08:15:35;;;;;;;16.15;14.43;;;;;;;;;;7395424;19;20479;-71
2022/07/21 08:18:01;;;;;;;15.30;13.90;;;;;;;;;;7393737;19;20474;-71
2022/07/21 08:20:26;;;;;;;15.20;13.77;;;;;;;;;;7393184;19;20734;-71
2022/07/21 08:22:54;;;;;;;15.02;13.80;;;;;;;;;;7389492;19;20560;-71
2022/07/21 08:25:20;;;;;;;13.43;12.02;;;;;;;;;;7395112;19;20180;-71
2022/07/21 08:27:45;;;;;;;14.32;13.02;;;;;;;;;;7393813;19;20517;-71
2022/07/21 08:30:11;;;;;;;13.20;12.00;;;;;;;;;;7393502;19;20621;-71
2022/07/21 08:32:37;;;;;;;13.80;12.45;;;;;;;;;;7391184;19;20176;-71
2022/07/21 08:35:08;;;;;;;12.77;11.77;;;;;;;;;;7393544;19;20129;-71
2022/07/21 08:37:33;;;;;;;13.82;12.52;;;;;;;;;;7394193;19;20125;-71
2022/07/21 08:39:58;;;;;;;11.73;10.68;;;;;;;;;;7392256;19;20166;-70
2022/07/21 08:42:24;;;;;;;11.80;10.73;;;;;;;;;;7389839;19;20148;-71
2022/07/21 08:44:49;;;;;;;12.70;11.23;;;;;;;;;;7394241;19;20117;-71
2022/07/21 08:47:14;;;;;;;10.57;9.15;;;;;;;;;;7391287;19;20141;-71
2022/07/21 08:49:40;;;;;;;10.60;9.60;;;;;;;;;;7394763;19;20133;-70
2022/07/21 08:52:07;;;;;;;10.32;9.40;;;;;;;;;;7391959;19;20209;-70
2022/07/21 08:54:32;;;;;;;10.85;9.88;;;;;;;;;;7392677;19;20140;-71
2022/07/21 08:56:57;;;;;;;10.25;9.25;;;;;;;;;;7393330;19;20205;-70
2022/07/21 08:59:23;;;;;;;9.60;8.70;;;;;;;;;;7393308;19;20117;-71
2022/07/21 09:01:48;;;;;;;9.95;9.05;;;;;;;;;;7392214;19;20148;-71
2022/07/21 09:04:28;;;;;;;9.50;8.70;;;;;;;;;;7395138;19;20127;-70
2022/07/21 09:06:59;;;;;;;8.77;7.88;;;;;;;;;;7393549;19;20238;-70
2022/07/21 09:09:26;;;;;;;9.00;8.20;;;;;;;;;;7391754;19;20477;-70
2022/07/21 09:11:52;;;;;;;10.27;9.27;;;;;;;;;;7389978;19;20149;-70
2022/07/21 09:14:21;;;;;;;10.40;9.52;;;;;;;;;;7391864;19;20132;-71
2022/07/21 09:16:52;;;;;;;10.00;8.85;;;;;;;;;;7391348;19;20209;-71
2022/07/21 09:19:22;;;;;;;9.77;8.88;;;;;;;;;;7391568;19;20121;-71
2022/07/21 09:21:49;;;;;;;10.25;9.25;;;;;;;;;;7389166;19;20489;-71
2022/07/21 09:24:21;;;;;;;10.93;9.77;;;;;;;;;;7390740;19;20160;-71
2022/07/21 09:27:05;;;;;;;10.35;9.32;;;;;;;;;;7392362;19;20121;-71
2022/07/21 09:29:53;;;;;;;11.07;9.95;;;;;;;;;;7393495;19;20117;-71
2022/07/21 09:32:27;;;;;;;12.32;11.25;;;;;;;;;;7388854;19;20705;-71
2022/07/21 09:34:53;;;;;;;12.02;10.90;;;;;;;;;;7387754;19;20145;-70
2022/07/21 09:37:20;;;;;;;11.45;10.48;;;;;;;;;;7391379;19;20188;-71
2022/07/21 09:39:54;;;;;;;12.15;10.88;;;;;;;;;;7388337;19;20117;-71
2022/07/21 09:42:28;;;;;;;11.68;10.57;;;;;;;;;;7386005;19;20173;-71
2022/07/21 09:45:05;;;;;;;10.48;9.55;;;;;;;;;;7388781;19;20117;-71
2022/07/21 09:47:32;;;;;;;10.30;9.30;;;;;;;;;;7388959;19;20175;-71
2022/07/21 09:49:58;;;;;;;10.80;9.90;;;;;;;;;;7387407;19;20121;-71
2022/07/21 09:52:25;;;;;;;11.25;10.30;;;;;;;;;;7387036;19;20207;-71
2022/07/21 09:54:52;;;;;;;10.70;9.80;;;;;;;;;;7390731;19;20174;-71
2022/07/21 09:57:18;;;;;;;11.40;10.50;;;;;;;;;;7388064;19;20595;-71
2022/07/21 09:59:45;;;;;;;11.30;10.30;;;;;;;;;;7390050;19;20157;-70
2022/07/21 10:02:16;;;;;;;11.38;10.48;;;;;;;;;;7386925;19;20220;-70
2022/07/21 10:04:42;;;;;;;10.30;9.40;;;;;;;;;;7387779;19;20132;-71
2022/07/21 10:07:08;;;;;;;11.07;9.98;;;;;;;;;;7387335;19;20142;-71
2022/07/21 10:09:33;;;;;;;12.60;8.80;;;;;;;;;;7388191;19;20161;-71
2022/07/21 10:11:59;;;;;;;10.15;9.13;;;;;;;;;;7387143;19;20623;-71
2022/07/21 10:14:25;;;;;;;10.85;9.95;;;;;;;;;;7389237;19;20124;-71
2022/07/21 10:16:50;;;;;;;8.70;8.10;;;;;;;;;;7387179;19;20169;-71
2022/07/21 10:19:23;;;;;;;9.75;8.77;;;;;;;;;;7389937;19;20120;-71
2022/07/21 10:21:58;;;;;;;9.38;8.43;;;;;;;;;;7387513;19;20153;-71
2022/07/21 10:24:27;;;;;;;11.35;7.85;;;;;;;;;;7389205;19;20131;-71
2022/07/21 10:27:19;;;;;;;9.80;7.88;;;;;;;;;;7382589;19;20266;-71
2022/07/21 10:29:47;;;;;;;9.38;7.70;;;;;;;;;;7387004;19;20520;-71
2022/07/21 10:32:17;;;;;;;7.82;7.22;;;;;;;;;;7381168;19;20153;-71
2022/07/21 10:34:43;;;;;;;7.45;6.60;;;;;;;;;;7384141;19;20121;-71
2022/07/21 10:37:09;;;;;;;9.68;7.68;;;;;;;;;;7386853;19;20117;-71
2022/07/21 10:39:34;;;;;;;7.95;7.22;;;;;;;;;;7390029;19;20196;-71
2022/07/21 10:42:13;;;;;;;8.23;7.43;;;;;;;;;;7386830;19;20629;-71
2022/07/21 10:44:39;;;;;;;7.35;6.65;;;;;;;;;;7390176;19;20123;-71
2022/07/21 10:47:13;;;;;;;7.88;7.28;;;;;;;;;;7394611;19;20176;-71
2022/07/21 10:49:47;;;;;;;8.38;7.43;;;;;;;;;;7397749;19;20150;-71
2022/07/21 10:52:39;;;;;;;8.40;7.60;;;;;;;;;;7395865;19;20672;-71
2022/07/21 10:55:13;;;;;;;8.52;7.72;;;;;;;;;;7397029;19;20160;-71
2022/07/21 10:57:43;;;;;;;8.48;7.70;;;;;;;;;;7398134;19;20121;-71
2022/07/21 11:00:20;;;;;;;7.60;6.97;;;;;;;;;;7396359;19;20121;-71
2022/07/21 11:02:47;;;;;;;7.70;7.05;;;;;;;;;;7395782;19;20511;-71
2022/07/21 11:05:12;;;;;;;8.32;7.63;;;;;;;;;;7396781;19;20477;-71
2022/07/21 11:08:18;;;;;;;7.25;6.55;;;;;;;;;;7396138;19;20138;-71
2022/07/21 11:10:49;;;;;;;7.63;6.93;;;;;;;;;;7393400;19;20513;-71
2022/07/21 11:13:15;;;;;;;7.20;6.60;;;;;;;;;;7398657;19;20135;-71
2022/07/21 11:15:57;;;;;;;6.95;6.38;;;;;;;;;;7396278;19;20116;-71
2022/07/21 11:18:25;;;;;;;7.07;6.32;;;;;;;;;;7396650;19;20534;-71
2022/07/21 11:21:13;;;;;;;7.63;6.72;;;;;;;;;;7394601;19;20630;-71
2022/07/21 11:23:49;;;;;;;6.55;5.95;;;;;;;;;;7395323;19;20129;-71
2022/07/21 11:26:19;;;;;;;7.30;6.70;;;;;;;;;;7396337;19;20116;-71
2022/07/21 11:28:45;;;;;;;7.38;6.53;;;;;;;;;;7392764;19;20132;-71
2022/07/21 11:31:21;;;;;;;7.40;6.65;;;;;;;;;;7395512;19;20152;-71
2022/07/21 11:33:47;;;;;;;7.97;6.40;;;;;;;;;;7395459;19;20121;-71
2022/07/21 11:36:27;;;;;;;6.80;6.20;;;;;;;;;;7395516;19;20133;-71
2022/07/21 11:39:00;;;;;;;7.40;6.57;;;;;;;;;;7397430;19;20566;-71
2022/07/21 11:41:26;;;;;;;8.30;6.72;;;;;;;;;;7393428;19;20177;-75
2022/07/21 11:43:51;;;;;;;8.10;7.40;;;;;;;;;;7395225;19;20113;-71
2022/07/21 11:46:17;;;;;;;8.68;6.60;;;;;;;;;;7395405;19;20125;-71
2022/07/21 11:48:42;;;;;;;7.13;6.30;;;;;;;;;;7392502;19;20530;-71
2022/07/21 11:51:08;;;;;;;6.88;6.28;;;;;;;;;;7394758;19;20659;-71
2022/07/21 11:53:33;;;;;;;6.90;6.15;;;;;;;;;;7395123;19;20185;-71
2022/07/21 11:55:59;;;;;;;6.30;5.70;;;;;;;;;;7393341;19;20113;-71
2022/07/21 11:58:24;;;;;;;6.40;5.90;;;;;;;;;;7391540;19;20121;-71
2022/07/21 12:01:04;;;;;;;6.43;5.85;;;;;;;;;;7393141;19;20121;-71
2022/07/21 12:03:29;;;;;;;6.18;5.55;;;;;;;;;;7394519;19;20121;-72
2022/07/21 12:05:55;;;;;;;6.90;6.18;;;;;;;;;;7391816;19;20157;-71
2022/07/21 12:08:21;;;;;;;7.70;7.00;;;;;;;;;;7388397;19;20166;-71
2022/07/21 12:10:46;;;;;;;6.97;6.28;;;;;;;;;;7391601;19;20109;-71
2022/07/21 12:13:11;;;;;;;6.22;5.72;;;;;;;;;;7395481;19;20113;-71
2022/07/21 12:15:37;;;;;;;6.93;6.32;;;;;;;;;;7395605;19;20124;-71
2022/07/21 12:18:05;;;;;;;7.28;6.57;;;;;;;;;;7393898;19;20132;-71
2022/07/21 12:20:40;;;;;;;6.82;5.65;;;;;;;;;;7393806;19;20611;-71
2022/07/21 12:23:19;;;;;;;6.55;6.05;;;;;;;;;;7393832;19;20124;-71
2022/07/21 12:25:45;;;;;;;6.47;5.88;;;;;;;;;;7395470;19;20121;-71
2022/07/21 12:28:10;;;;;;;5.82;5.30;;;;;;;;;;7392559;19;20517;-71
2022/07/21 12:30:35;;;;;;;5.97;5.57;;;;;;;;;;7393778;19;20121;-71
2022/07/21 12:33:03;;;;;;;5.70;5.20;;;;;;;;;;7394712;19;20560;-71
2022/07/21 12:35:29;;;;;;;5.45;4.97;;;;;;;;;;7394881;19;20131;-71
2022/07/21 12:37:56;;;;;;;5.80;5.30;;;;;;;;;;7388837;19;20543;-71
2022/07/21 12:40:21;;;;;;;5.65;5.07;;;;;;;;;;7392577;19;20129;-72
2022/07/21 12:42:47;;;;;;;5.53;5.13;;;;;;;;;;7389354;19;20167;-71
2022/07/21 12:45:20;;;;;;;5.75;5.35;;;;;;;;;;7390495;19;20684;-71
2022/07/21 12:48:08;;;;;;;5.82;5.18;;;;;;;;;;7389854;19;20113;-71
2022/07/21 12:50:33;;;;;;;6.10;5.50;;;;;;;;;;7392172;19;20117;-71
2022/07/21 12:52:59;;;;;;;5.60;5.10;;;;;;;;;;7390115;19;20128;-71
2022/07/21 12:55:24;;;;;;;5.80;5.25;;;;;;;;;;7390852;19;20151;-71
2022/07/21 12:57:49;;;;;;;6.43;5.50;;;;;;;;;;7391870;19;20130;-71
2022/07/21 13:00:15;;;;;;;6.10;5.53;;;;;;;;;;7390574;19;20145;-71
2022/07/21 13:02:51;;;;;;;5.32;4.95;;;;;;;;;;7388649;19;20144;-71
2022/07/21 13:05:17;;;;;;;5.57;4.88;;;;;;;;;;7391836;19;20184;-71
2022/07/21 13:07:42;;;;;;;5.68;5.03;;;;;;;;;;7389743;19;20540;-71
2022/07/21 13:10:08;;;;;;;5.32;4.82;;;;;;;;;;7393992;19;20121;-71
2022/07/21 13:12:33;;;;;;;5.72;5.22;;;;;;;;;;7384128;19;20502;-71
2022/07/21 13:14:58;;;;;;;5.10;4.70;;;;;;;;;;7388998;19;20595;-71
2022/07/21 13:17:24;;;;;;;6.25;5.60;;;;;;;;;;7390339;19;20117;-71
2022/07/21 13:19:49;;;;;;;5.50;4.97;;;;;;;;;;7393450;19;20124;-71
2022/07/21 13:22:14;;;;;;;5.47;5.00;;;;;;;;;;7390733;19;20160;-71
2022/07/21 13:24:40;;;;;;;6.05;5.43;;;;;;;;;;7392614;19;20460;-71
2022/07/21 13:27:05;;;;;;;5.82;5.28;;;;;;;;;;7392528;19;20125;-71
2022/07/21 13:29:30;;;;;;;5.82;5.32;;;;;;;;;;7393569;19;20629;-71
2022/07/21 13:31:56;;;;;;;5.32;4.85;;;;;;;;;;7390156;19;20196;-71
2022/07/21 13:34:21;;;;;;;5.45;5.05;;;;;;;;;;7392921;19;20184;-71
2022/07/21 13:36:47;;;;;;;5.80;5.30;;;;;;;;;;7391524;19;20113;-71
2022/07/21 13:39:12;;;;;;;5.97;5.47;;;;;;;;;;7392854;19;20122;-71
2022/07/21 13:41:37;;;;;;;6.50;6.00;;;;;;;;;;7392282;19;20553;-71
2022/07/21 13:44:03;;;;;;;6.22;5.63;;;;;;;;;;7392777;19;20113;-71
2022/07/21 13:46:28;;;;;;;5.72;5.30;;;;;;;;;;7392495;19;20149;-71
2022/07/21 13:48:54;;;;;;;5.78;5.25;;;;;;;;;;7391354;19;20457;-71
2022/07/21 13:51:20;;;;;;;7.00;5.88;;;;;;;;;;7390634;19;20141;-71
2022/07/21 13:53:47;;;;;;;5.43;4.93;;;;;;;;;;7391125;19;20145;-71
2022/07/21 13:56:13;;;;;;;5.97;5.57;;;;;;;;;;7392233;19;20140;-71
2022/07/21 13:58:38;;;;;;;7.03;5.72;;;;;;;;;;7390368;19;20128;-71
2022/07/21 14:01:04;;;;;;;6.68;5.20;;;;;;;;;;7389223;19;20528;-71
2022/07/21 14:03:29;;;;;;;5.60;5.10;;;;;;;;;;7392488;19;20461;-71
2022/07/21 14:05:55;;;;;;;6.03;5.45;;;;;;;;;;7391535;19;20149;-71
2022/07/21 14:08:20;;;;;;;5.88;5.38;;;;;;;;;;7391283;19;20121;-71
2022/07/21 14:10:45;;;;;;;6.40;5.13;;;;;;;;;;7392545;19;20133;-71
2022/07/21 14:13:11;;;;;;;5.35;4.90;;;;;;;;;;7389995;19;20176;-71
2022/07/21 14:15:36;;;;;;;5.15;4.63;;;;;;;;;;7389951;19;20133;-71
2022/07/21 14:18:01;;;;;;;4.97;4.57;;;;;;;;;;7391849;19;20125;-71
2022/07/21 14:20:27;;;;;;;5.90;5.38;;;;;;;;;;7389579;19;20125;-71
2022/07/21 14:22:53;;;;;;;5.97;5.47;;;;;;;;;;7389185;19;20145;-71
2022/07/21 14:25:18;;;;;;;6.93;5.63;;;;;;;;;;7389765;19;20639;-71
2022/07/21 14:27:48;;;;;;;6.28;5.68;;;;;;;;;;7389678;19;20136;-71
2022/07/21 14:30:14;;;;;;;5.93;5.43;;;;;;;;;;7388932;19;20121;-71
2022/07/21 14:32:40;;;;;;;5.63;5.13;;;;;;;;;;7388841;19;20153;-71
2022/07/21 14:35:05;;;;;;;5.25;4.80;;;;;;;;;;7389684;19;20136;-71
2022/07/21 14:37:31;;;;;;;5.72;5.22;;;;;;;;;;7390931;19;20137;-71
2022/07/21 14:39:56;;;;;;;7.07;5.00;;;;;;;;;;7391109;19;20149;-71
2022/07/21 14:42:25;;;;;;;4.68;4.38;;;;;;;;;;7387276;19;20141;-71
2022/07/21 14:44:50;;;;;;;4.80;4.50;;;;;;;;;;7389848;19;20220;-71
2022/07/21 14:47:15;;;;;;;5.53;5.05;;;;;;;;;;7388265;19;20134;-71
2022/07/21 14:49:41;;;;;;;5.53;5.03;;;;;;;;;;7391603;19;20133;-71
2022/07/21 14:52:06;;;;;;;5.50;5.00;;;;;;;;;;7387342;19;20148;-71
2022/07/21 14:54:32;;;;;;;6.10;4.80;;;;;;;;;;7391202;19;20663;-71
2022/07/21 14:56:57;;;;;;;5.65;5.15;;;;;;;;;;7388249;19;20579;-71
2022/07/21 14:59:22;;;;;;;5.30;4.82;;;;;;;;;;7390353;19;20154;-71
2022/07/21 15:01:48;;;;;;;5.53;5.00;;;;;;;;;;7386677;19;20550;-71
2022/07/21 15:04:13;;;;;;;6.15;4.97;;;;;;;;;;7390817;19;20509;-71
2022/07/21 15:06:38;;;;;;;5.60;5.07;;;;;;;;;;7390482;19;20148;-71
2022/07/21 15:09:03;;;;;;;5.63;5.13;;;;;;;;;;7388040;19;20173;-71
2022/07/21 15:11:29;;;;;;;5.32;4.93;;;;;;;;;;7388421;19;20149;-71
2022/07/21 15:13:54;;;;;;;5.28;4.88;;;;;;;;;;7388544;19;20124;-71
2022/07/21 15:16:20;;;;;;;6.35;5.13;;;;;;;;;;7383987;19;20679;-71
2022/07/21 15:18:45;;;;;;;5.38;4.97;;;;;;;;;;7386848;19;20121;-71
2022/07/21 15:21:11;;;;;;;5.30;4.90;;;;;;;;;;7384760;19;20178;-71
2022/07/21 15:23:36;;;;;;;5.25;4.85;;;;;;;;;;7385104;19;20141;-71
2022/07/21 15:26:01;;;;;;;5.65;4.68;;;;;;;;;;7387430;19;20224;-71
2022/07/21 15:28:27;;;;;;;6.18;5.00;;;;;;;;;;7383862;19;20671;-71
2022/07/21 15:30:52;;;;;;;5.40;4.97;;;;;;;;;;7386239;19;20153;-71
2022/07/21 15:33:18;;;;;;;5.75;5.32;;;;;;;;;;7393539;19;20199;-71
2022/07/21 15:35:43;;;;;;;5.18;4.78;;;;;;;;;;7392474;19;21037;-71
2022/07/21 15:38:08;;;;;;;5.88;4.90;;;;;;;;;;7394748;19;20117;-71
2022/07/21 15:40:34;;;;;;;5.45;4.93;;;;;;;;;;7393314;19;20133;-71
2022/07/21 15:42:59;;;;;;;5.82;5.32;;;;;;;;;;7392004;19;20121;-71
2022/07/21 15:45:24;;;;;;;4.53;4.13;;;;;;;;;;7391288;19;20134;-71
2022/07/21 15:47:50;;;;;;;5.25;4.85;;;;;;;;;;7389742;19;20145;-71
2022/07/21 15:50:15;;;;;;;4.55;4.15;;;;;;;;;;7394178;19;20117;-71
2022/07/21 15:52:41;;;;;;;4.85;4.53;;;;;;;;;;7392655;19;21298;-71
2022/07/21 15:55:08;;;;;;;5.45;4.50;;;;;;;;;;7390743;19;20114;-71
2022/07/21 15:57:35;;;;;;;4.68;4.07;;;;;;;;;;7390437;19;20129;-71
2022/07/21 16:00:00;;;;;;;5.38;4.90;;;;;;;;;;7391966;19;20117;-71
2022/07/21 16:02:26;;;;;;;5.05;4.60;;;;;;;;;;7389843;19;20614;-71
2022/07/21 16:04:51;;;;;;;4.47;4.18;;;;;;;;;;7393843;19;20189;-71
2022/07/21 16:07:17;;;;;;;4.70;4.32;;;;;;;;;;7392076;19;20200;-71
2022/07/21 16:09:42;;;;;;;4.75;4.32;;;;;;;;;;7393372;19;20122;-71
2022/07/21 16:12:10;;;;;;;4.65;4.28;;;;;;;;;;7388463;19;20347;-71
2022/07/21 16:14:35;;;;;;;5.03;4.63;;;;;;;;;;7391159;19;20542;-71
2022/07/21 16:17:01;;;;;;;5.20;4.70;;;;;;;;;;7391558;19;20603;-71
2022/07/21 16:19:26;;;;;;;4.57;4.18;;;;;;;;;;7392090;19;20133;-71
2022/07/21 16:21:53;;;;;;;5.63;5.13;;;;;;;;;;7391155;19;20555;-71
2022/07/21 16:24:19;;;;;;;5.22;4.75;;;;;;;;;;7391152;19;20125;-71
2022/07/21 16:26:44;;;;;;;4.95;4.45;;;;;;;;;;7391493;19;20164;-71
2022/07/21 16:29:10;;;;;;;4.90;4.50;;;;;;;;;;7392356;19;20133;-71
2022/07/21 16:31:37;;;;;;;5.28;4.78;;;;;;;;;;7390709;19;20144;-71
2022/07/21 16:34:02;;;;;;;5.35;4.85;;;;;;;;;;7391863;19;20137;-71
2022/07/21 16:36:27;;;;;;;4.90;4.50;;;;;;;;;;7393844;19;20128;-71
2022/07/21 16:38:53;;;;;;;5.30;4.80;;;;;;;;;;7393891;19;20473;-71
2022/07/21 16:41:18;;;;;;;5.35;4.95;;;;;;;;;;7391075;19;20624;-71
2022/07/21 16:43:43;;;;;;;5.13;4.20;;;;;;;;;;7389059;19;20393;-71
2022/07/21 16:46:09;;;;;;;5.82;5.07;;;;;;;;;;7390885;19;20140;-71
2022/07/21 16:48:34;;;;;;;6.78;5.00;;;;;;;;;;7389989;19;20473;-71
2022/07/21 16:50:59;;;;;;;5.07;4.68;;;;;;;;;;7389071;19;20621;-71
2022/07/21 16:53:25;;;;;;;4.57;4.15;;;;;;;;;;7391977;19;20149;-71
2022/07/21 16:55:50;;;;;;;4.05;3.75;;;;;;;;;;7392079;19;20121;-71
2022/07/21 16:58:15;;;;;;;6.28;4.72;;;;;;;;;;7391128;19;20117;-71
2022/07/21 17:00:41;;;;;;;12.80;4.40;;;;;;;;;;7390622;19;20587;-71
2022/07/21 17:03:06;;;;;;;4.50;4.10;;;;;;;;;;7390334;19;20142;-71
2022/07/21 17:05:31;;;;;;;6.50;4.70;;;;;;;;;;7391959;19;20129;-71
2022/07/21 17:07:57;;;;;;;5.75;4.80;;;;;;;;;;7391271;19;20121;-71
2022/07/21 17:10:22;;;;;;;4.95;4.55;;;;;;;;;;7392655;19;20133;-71
2022/07/21 17:12:48;;;;;;;4.53;4.13;;;;;;;;;;7383888;19;20228;-71
2022/07/21 17:15:14;;;;;;;5.45;4.95;;;;;;;;;;7391413;19;20136;-71
2022/07/21 17:17:40;;;;;;;5.03;4.50;;;;;;;;;;7391888;19;20528;-71
2022/07/21 17:20:07;;;;;;;4.22;3.92;;;;;;;;;;7390539;19;20139;-71
2022/07/21 17:22:32;;;;;;;4.78;4.45;;;;;;;;;;7385908;19;20163;-71
2022/07/21 17:24:57;;;;;;;4.70;4.30;;;;;;;;;;7387396;19;20749;-71
2022/07/21 17:27:23;;;;;;;4.65;4.25;;;;;;;;;;7390723;19;20608;-71
2022/07/21 17:29:49;;;;;;;5.15;4.32;;;;;;;;;;7393947;19;20197;-71
2022/07/21 17:32:14;;;;;;;5.57;4.78;;;;;;;;;;7388481;19;20522;-71
2022/07/21 17:34:39;;;;;;;5.20;4.70;;;;;;;;;;7386037;19;20113;-71
2022/07/21 17:37:04;;;;;;;4.63;4.22;;;;;;;;;;7388694;19;20133;-71
2022/07/21 17:39:30;;;;;;;4.80;4.32;;;;;;;;;;7392185;19;20128;-71
2022/07/21 17:41:55;;;;;;;4.75;4.35;;;;;;;;;;7390385;19;20203;-70
